Terminal Aerodrome Forecast
Issued by NWS

Home | Current Version | Previous Version | Text Only | Print | Product List | Glossary Off
Versions: 1 2 3 4 5 6 7 8 9 10 11 12

000
FTUS45 KGGW 252328
TAFGDV
TAF
KGDV 252328Z 2600/2624 01007KT P6SM SCT110
     FM260300 06007KT P6SM SKC
     FM261300 11006KT P6SM SKC
     FM261700 15010KT P6SM SKC=

USA.gov is the U.S. government's official web portal to all federal, state and local government web resources and services.